sensor_id;sensor_type;location;lat;lon;timestamp;temperature;humidity
7686;DHT22;3885;51.474;-2.576;2023-06-14T00:00:47;16.60;99.90
7686;DHT22;3885;51.474;-2.576;2023-06-14T00:03:14;16.60;99.90
7686;DHT22;3885;51.474;-2.576;2023-06-14T00:05:43;16.50;99.90
7686;DHT22;3885;51.474;-2.576;2023-06-14T00:08:12;16.50;99.90
7686;DHT22;3885;51.474;-2.576;2023-06-14T00:15:36;16.40;99.90
7686;DHT22;3885;51.474;-2.576;2023-06-14T00:18:04;16.40;99.90
7686;DHT22;3885;51.474;-2.576;2023-06-14T00:20:32;16.40;99.90
7686;DHT22;3885;51.474;-2.576;2023-06-14T00:25:27;16.30;99.90
7686;DHT22;3885;51.474;-2.576;2023-06-14T00:27:54;16.30;99.90
7686;DHT22;3885;51.474;-2.576;2023-06-14T00:30:23;16.30;99.90
7686;DHT22;3885;51.474;-2.576;2023-06-14T00:32:51;16.20;99.90
7686;DHT22;3885;51.474;-2.576;2023-06-14T00:35:18;16.20;99.90
7686;DHT22;3885;51.474;-2.576;2023-06-14T00:37:44;16.20;99.90
7686;DHT22;3885;51.474;-2.576;2023-06-14T00:40:11;16.20;99.90
7686;DHT22;3885;51.474;-2.576;2023-06-14T00:42:38;16.20;99.90
7686;DHT22;3885;51.474;-2.576;2023-06-14T00:47:35;16.00;99.90
7686;DHT22;3885;51.474;-2.576;2023-06-14T00:50:06;16.00;99.90
7686;DHT22;3885;51.474;-2.576;2023-06-14T00:52:34;16.00;99.90
7686;DHT22;3885;51.474;-2.576;2023-06-14T00:55:02;16.00;99.90
7686;DHT22;3885;51.474;-2.576;2023-06-14T00:59:56;16.00;99.90
7686;DHT22;3885;51.474;-2.576;2023-06-14T01:02:23;16.00;99.90
7686;DHT22;3885;51.474;-2.576;2023-06-14T01:07:28;16.00;99.90
7686;DHT22;3885;51.474;-2.576;2023-06-14T01:10:08;16.00;99.90
7686;DHT22;3885;51.474;-2.576;2023-06-14T01:12:47;16.00;99.90
7686;DHT22;3885;51.474;-2.576;2023-06-14T01:15:17;16.00;99.90
7686;DHT22;3885;51.474;-2.576;2023-06-14T01:20:15;15.90;99.90
7686;DHT22;3885;51.474;-2.576;2023-06-14T01:27:47;15.70;99.90
7686;DHT22;3885;51.474;-2.576;2023-06-14T01:30:15;15.60;99.90
7686;DHT22;3885;51.474;-2.576;2023-06-14T01:35:10;15.40;99.90
7686;DHT22;3885;51.474;-2.576;2023-06-14T01:40:07;15.30;99.90
7686;DHT22;3885;51.474;-2.576;2023-06-14T01:42:37;15.30;99.90
7686;DHT22;3885;51.474;-2.576;2023-06-14T01:45:06;15.20;99.90
7686;DHT22;3885;51.474;-2.576;2023-06-14T01:47:34;15.10;99.90
7686;DHT22;3885;51.474;-2.576;2023-06-14T01:54:56;14.80;99.90
7686;DHT22;3885;51.474;-2.576;2023-06-14T01:57:29;14.70;99.90
7686;DHT22;3885;51.474;-2.576;2023-06-14T01:59:55;14.70;99.90
7686;DHT22;3885;51.474;-2.576;2023-06-14T02:02:22;14.60;99.90
7686;DHT22;3885;51.474;-2.576;2023-06-14T02:04:49;14.50;99.90
7686;DHT22;3885;51.474;-2.576;2023-06-14T02:09:43;14.30;99.90
7686;DHT22;3885;51.474;-2.576;2023-06-14T02:17:06;14.10;99.90
7686;DHT22;3885;51.474;-2.576;2023-06-14T02:19:33;14.00;99.90
7686;DHT22;3885;51.474;-2.576;2023-06-14T02:22:00;14.00;99.90
7686;DHT22;3885;51.474;-2.576;2023-06-14T02:26:54;13.80;99.90
7686;DHT22;3885;51.474;-2.576;2023-06-14T02:29:21;13.80;99.90
7686;DHT22;3885;51.474;-2.576;2023-06-14T02:31:49;13.70;99.90
7686;DHT22;3885;51.474;-2.576;2023-06-14T02:34:16;13.70;99.90
7686;DHT22;3885;51.474;-2.576;2023-06-14T02:36:45;13.60;99.90
7686;DHT22;3885;51.474;-2.576;2023-06-14T02:41:40;13.30;99.90
7686;DHT22;3885;51.474;-2.576;2023-06-14T02:46:35;13.40;99.90
7686;DHT22;3885;51.474;-2.576;2023-06-14T02:51:30;13.20;99.90
7686;DHT22;3885;51.474;-2.576;2023-06-14T02:53:57;13.10;99.90
7686;DHT22;3885;51.474;-2.576;2023-06-14T02:56:24;13.10;99.90
7686;DHT22;3885;51.474;-2.576;2023-06-14T02:58:51;13.10;99.90
7686;DHT22;3885;51.474;-2.576;2023-06-14T03:01:19;13.00;99.90
7686;DHT22;3885;51.474;-2.576;2023-06-14T03:06:15;13.00;99.90
7686;DHT22;3885;51.474;-2.576;2023-06-14T03:11:10;13.00;99.90
7686;DHT22;3885;51.474;-2.576;2023-06-14T03:16:06;12.90;99.90
7686;DHT22;3885;51.474;-2.576;2023-06-14T03:18:34;13.00;99.90
7686;DHT22;3885;51.474;-2.576;2023-06-14T03:21:02;12.90;99.90
7686;DHT22;3885;51.474;-2.576;2023-06-14T03:25:58;12.80;99.90
7686;DHT22;3885;51.474;-2.576;2023-06-14T03:28:25;12.80;99.90
7686;DHT22;3885;51.474;-2.576;2023-06-14T03:30:52;12.80;99.90
7686;DHT22;3885;51.474;-2.576;2023-06-14T03:33:19;12.80;99.90
7686;DHT22;3885;51.474;-2.576;2023-06-14T03:35:46;12.80;99.90
7686;DHT22;3885;51.474;-2.576;2023-06-14T03:38:13;12.80;99.90
7686;DHT22;3885;51.474;-2.576;2023-06-14T03:43:10;12.70;99.90
7686;DHT22;3885;51.474;-2.576;2023-06-14T03:45:37;12.70;99.90
7686;DHT22;3885;51.474;-2.576;2023-06-14T03:53:00;12.70;99.90
7686;DHT22;3885;51.474;-2.576;2023-06-14T03:55:27;12.60;99.90
7686;DHT22;3885;51.474;-2.576;2023-06-14T03:57:58;12.60;99.90
7686;DHT22;3885;51.474;-2.576;2023-06-14T04:02:52;12.50;99.90
7686;DHT22;3885;51.474;-2.576;2023-06-14T04:05:19;12.60;99.90
7686;DHT22;3885;51.474;-2.576;2023-06-14T04:10:15;12.60;99.90
7686;DHT22;3885;51.474;-2.576;2023-06-14T04:12:42;12.60;99.90
7686;DHT22;3885;51.474;-2.576;2023-06-14T04:15:10;12.60;99.90
7686;DHT22;3885;51.474;-2.576;2023-06-14T04:17:38;12.50;99.90
7686;DHT22;3885;51.474;-2.576;2023-06-14T04:22:35;12.60;99.90
7686;DHT22;3885;51.474;-2.576;2023-06-14T04:25:03;12.50;99.90
7686;DHT22;3885;51.474;-2.576;2023-06-14T04:30:02;12.50;99.90
7686;DHT22;3885;51.474;-2.576;2023-06-14T04:32:30;12.60;99.90
7686;DHT22;3885;51.474;-2.576;2023-06-14T04:34:59;12.50;99.90
7686;DHT22;3885;51.474;-2.576;2023-06-14T04:42:23;12.60;99.90
7686;DHT22;3885;51.474;-2.576;2023-06-14T04:44:56;12.50;99.90
7686;DHT22;3885;51.474;-2.576;2023-06-14T04:49:57;12.60;99.90
7686;DHT22;3885;51.474;-2.576;2023-06-14T04:54:55;12.60;99.90
7686;DHT22;3885;51.474;-2.576;2023-06-14T04:57:23;12.60;99.90
7686;DHT22;3885;51.474;-2.576;2023-06-14T04:59:51;12.70;99.90
7686;DHT22;3885;51.474;-2.576;2023-06-14T05:02:20;12.70;99.90
7686;DHT22;3885;51.474;-2.576;2023-06-14T05:04:48;12.70;99.90
7686;DHT22;3885;51.474;-2.576;2023-06-14T05:07:16;12.80;99.90
7686;DHT22;3885;51.474;-2.576;2023-06-14T05:09:44;12.80;99.90
7686;DHT22;3885;51.474;-2.576;2023-06-14T05:17:06;12.80;99.90
7686;DHT22;3885;51.474;-2.576;2023-06-14T05:22:00;12.80;99.90
7686;DHT22;3885;51.474;-2.576;2023-06-14T05:24:30;12.90;99.90
7686;DHT22;3885;51.474;-2.576;2023-06-14T05:26:57;13.10;99.90
7686;DHT22;3885;51.474;-2.576;2023-06-14T05:29:24;13.20;99.90
7686;DHT22;3885;51.474;-2.576;2023-06-14T05:31:51;13.50;99.90
7686;DHT22;3885;51.474;-2.576;2023-06-14T05:36:46;13.90;99.90
7686;DHT22;3885;51.474;-2.576;2023-06-14T05:39:13;14.00;99.90
7686;DHT22;3885;51.474;-2.576;2023-06-14T05:44:08;14.30;99.90
7686;DHT22;3885;51.474;-2.576;2023-06-14T05:49:05;14.50;99.90
7686;DHT22;3885;51.474;-2.576;2023-06-14T05:51:32;14.70;99.90
7686;DHT22;3885;51.474;-2.576;2023-06-14T05:53:59;14.80;99.90
7686;DHT22;3885;51.474;-2.576;2023-06-14T05:56:26;14.90;99.90
7686;DHT22;3885;51.474;-2.576;2023-06-14T05:58:54;14.90;99.90
7686;DHT22;3885;51.474;-2.576;2023-06-14T06:01:21;14.90;99.90
7686;DHT22;3885;51.474;-2.576;2023-06-14T06:03:48;14.90;99.90
7686;DHT22;3885;51.474;-2.576;2023-06-14T06:06:15;14.80;99.90
7686;DHT22;3885;51.474;-2.576;2023-06-14T06:08:43;14.90;99.90
7686;DHT22;3885;51.474;-2.576;2023-06-14T06:11:10;15.00;99.90
7686;DHT22;3885;51.474;-2.576;2023-06-14T06:13:38;14.90;99.90
7686;DHT22;3885;51.474;-2.576;2023-06-14T06:16:07;14.80;99.90
7686;DHT22;3885;51.474;-2.576;2023-06-14T06:18:34;14.90;99.90
7686;DHT22;3885;51.474;-2.576;2023-06-14T06:21:03;15.00;99.90
7686;DHT22;3885;51.474;-2.576;2023-06-14T06:23:30;15.10;99.90
7686;DHT22;3885;51.474;-2.576;2023-06-14T06:25:57;15.10;99.90
7686;DHT22;3885;51.474;-2.576;2023-06-14T06:28:24;15.20;99.90
7686;DHT22;3885;51.474;-2.576;2023-06-14T06:35:47;15.40;99.90
7686;DHT22;3885;51.474;-2.576;2023-06-14T06:38:14;15.40;99.90
7686;DHT22;3885;51.474;-2.576;2023-06-14T06:40:41;15.40;99.90
7686;DHT22;3885;51.474;-2.576;2023-06-14T06:48:06;15.70;99.90
7686;DHT22;3885;51.474;-2.576;2023-06-14T06:50:36;15.70;99.90
7686;DHT22;3885;51.474;-2.576;2023-06-14T06:57:57;15.80;99.90
7686;DHT22;3885;51.474;-2.576;2023-06-14T07:02:53;15.90;99.90
7686;DHT22;3885;51.474;-2.576;2023-06-14T07:05:20;16.00;99.90
7686;DHT22;3885;51.474;-2.576;2023-06-14T07:10:16;16.30;99.90
7686;DHT22;3885;51.474;-2.576;2023-06-14T07:12:43;16.30;99.90
7686;DHT22;3885;51.474;-2.576;2023-06-14T07:15:11;16.40;99.90
7686;DHT22;3885;51.474;-2.576;2023-06-14T07:17:38;16.30;99.90
7686;DHT22;3885;51.474;-2.576;2023-06-14T07:20:06;16.40;99.90
7686;DHT22;3885;51.474;-2.576;2023-06-14T07:22:37;16.50;99.90
7686;DHT22;3885;51.474;-2.576;2023-06-14T07:25:08;16.60;99.90
7686;DHT22;3885;51.474;-2.576;2023-06-14T07:27:35;16.70;99.90
7686;DHT22;3885;51.474;-2.576;2023-06-14T07:32:29;16.80;99.90
7686;DHT22;3885;51.474;-2.576;2023-06-14T07:37:23;17.10;99.90
7686;DHT22;3885;51.474;-2.576;2023-06-14T07:42:19;17.20;99.90
7686;DHT22;3885;51.474;-2.576;2023-06-14T07:52:08;17.40;99.90
7686;DHT22;3885;51.474;-2.576;2023-06-14T07:54:34;17.50;99.90
7686;DHT22;3885;51.474;-2.576;2023-06-14T07:57:02;17.50;99.90
7686;DHT22;3885;51.474;-2.576;2023-06-14T07:59:30;17.60;99.90
7686;DHT22;3885;51.474;-2.576;2023-06-14T08:09:19;17.70;99.90
7686;DHT22;3885;51.474;-2.576;2023-06-14T08:14:13;17.90;99.90
7686;DHT22;3885;51.474;-2.576;2023-06-14T08:16:42;18.10;99.90
7686;DHT22;3885;51.474;-2.576;2023-06-14T08:19:09;18.30;99.90
7686;DHT22;3885;51.474;-2.576;2023-06-14T08:24:03;18.60;99.90
7686;DHT22;3885;51.474;-2.576;2023-06-14T08:26:30;18.50;99.90
7686;DHT22;3885;51.474;-2.576;2023-06-14T08:28:57;18.70;99.90
7686;DHT22;3885;51.474;-2.576;2023-06-14T08:31:24;18.90;99.90
7686;DHT22;3885;51.474;-2.576;2023-06-14T08:36:22;18.90;99.90
7686;DHT22;3885;51.474;-2.576;2023-06-14T08:38:49;18.90;99.90
7686;DHT22;3885;51.474;-2.576;2023-06-14T08:41:21;19.00;99.90
7686;DHT22;3885;51.474;-2.576;2023-06-14T08:43:48;19.10;99.90
7686;DHT22;3885;51.474;-2.576;2023-06-14T08:46:18;19.20;99.90
7686;DHT22;3885;51.474;-2.576;2023-06-14T08:48:47;19.20;99.90
7686;DHT22;3885;51.474;-2.576;2023-06-14T08:51:18;19.20;99.90
7686;DHT22;3885;51.474;-2.576;2023-06-14T08:56:23;19.50;99.90
7686;DHT22;3885;51.474;-2.576;2023-06-14T08:58:51;19.70;99.90
7686;DHT22;3885;51.474;-2.576;2023-06-14T09:01:19;19.80;99.90
7686;DHT22;3885;51.474;-2.576;2023-06-14T09:06:17;19.90;99.90
7686;DHT22;3885;51.474;-2.576;2023-06-14T09:08:45;20.10;99.90
7686;DHT22;3885;51.474;-2.576;2023-06-14T09:16:09;20.30;99.90
7686;DHT22;3885;51.474;-2.576;2023-06-14T09:18:36;20.40;99.90
7686;DHT22;3885;51.474;-2.576;2023-06-14T09:21:05;20.50;99.90
7686;DHT22;3885;51.474;-2.576;2023-06-14T09:23:36;20.70;99.90
7686;DHT22;3885;51.474;-2.576;2023-06-14T09:28:34;21.00;99.90
7686;DHT22;3885;51.474;-2.576;2023-06-14T09:31:01;21.10;99.90
7686;DHT22;3885;51.474;-2.576;2023-06-14T09:33:28;21.10;99.90
7686;DHT22;3885;51.474;-2.576;2023-06-14T09:35:55;21.00;99.90
7686;DHT22;3885;51.474;-2.576;2023-06-14T09:38:22;21.00;99.90
7686;DHT22;3885;51.474;-2.576;2023-06-14T09:40:51;21.20;99.90
7686;DHT22;3885;51.474;-2.576;2023-06-14T09:43:19;21.40;99.90
7686;DHT22;3885;51.474;-2.576;2023-06-14T09:48:15;21.60;99.90
7686;DHT22;3885;51.474;-2.576;2023-06-14T09:50:45;21.70;99.90
7686;DHT22;3885;51.474;-2.576;2023-06-14T09:53:13;21.90;99.90
7686;DHT22;3885;51.474;-2.576;2023-06-14T09:55:41;22.00;99.90
7686;DHT22;3885;51.474;-2.576;2023-06-14T09:58:10;22.00;99.90
7686;DHT22;3885;51.474;-2.576;2023-06-14T10:00:39;22.20;99.90
7686;DHT22;3885;51.474;-2.576;2023-06-14T10:05:42;22.10;99.90
7686;DHT22;3885;51.474;-2.576;2023-06-14T10:08:13;22.10;99.90
7686;DHT22;3885;51.474;-2.576;2023-06-14T10:15:43;22.40;99.90
7686;DHT22;3885;51.474;-2.576;2023-06-14T10:20:53;22.70;99.90
7686;DHT22;3885;51.474;-2.576;2023-06-14T10:25:54;22.60;99.90
7686;DHT22;3885;51.474;-2.576;2023-06-14T10:28:23;22.70;99.90
7686;DHT22;3885;51.474;-2.576;2023-06-14T10:36:07;23.00;99.50
7686;DHT22;3885;51.474;-2.576;2023-06-14T10:38:36;23.00;99.40
7686;DHT22;3885;51.474;-2.576;2023-06-14T10:46:16;23.20;99.90
7686;DHT22;3885;51.474;-2.576;2023-06-14T10:51:16;23.20;99.90
7686;DHT22;3885;51.474;-2.576;2023-06-14T10:53:46;23.40;99.90
7686;DHT22;3885;51.474;-2.576;2023-06-14T10:56:24;23.50;99.40
7686;DHT22;3885;51.474;-2.576;2023-06-14T10:58:55;23.60;99.70
7686;DHT22;3885;51.474;-2.576;2023-06-14T11:01:32;23.80;99.90
7686;DHT22;3885;51.474;-2.576;2023-06-14T11:04:07;24.10;99.90
7686;DHT22;3885;51.474;-2.576;2023-06-14T11:06:45;24.30;98.80
7686;DHT22;3885;51.474;-2.576;2023-06-14T11:12:28;24.20;99.90
7686;DHT22;3885;51.474;-2.576;2023-06-14T11:14:59;24.30;99.80
7686;DHT22;3885;51.474;-2.576;2023-06-14T11:17:26;24.40;99.80
7686;DHT22;3885;51.474;-2.576;2023-06-14T11:20:08;24.50;99.70
7686;DHT22;3885;51.474;-2.576;2023-06-14T11:22:39;24.60;99.50
7686;DHT22;3885;51.474;-2.576;2023-06-14T11:25:09;24.50;99.00
7686;DHT22;3885;51.474;-2.576;2023-06-14T11:30:07;24.80;99.90
7686;DHT22;3885;51.474;-2.576;2023-06-14T11:32:34;24.90;99.00
7686;DHT22;3885;51.474;-2.576;2023-06-14T11:35:02;24.70;99.40
7686;DHT22;3885;51.474;-2.576;2023-06-14T11:39:58;24.80;99.10
7686;DHT22;3885;51.474;-2.576;2023-06-14T11:42:26;24.80;99.30
7686;DHT22;3885;51.474;-2.576;2023-06-14T11:44:54;25.00;98.70
7686;DHT22;3885;51.474;-2.576;2023-06-14T11:47:22;25.10;98.20
7686;DHT22;3885;51.474;-2.576;2023-06-14T11:49:49;25.20;98.60
7686;DHT22;3885;51.474;-2.576;2023-06-14T11:52:17;25.20;99.10
7686;DHT22;3885;51.474;-2.576;2023-06-14T11:54:47;25.20;98.90
7686;DHT22;3885;51.474;-2.576;2023-06-14T11:57:15;25.30;99.10
7686;DHT22;3885;51.474;-2.576;2023-06-14T11:59:44;25.40;99.20
7686;DHT22;3885;51.474;-2.576;2023-06-14T12:04:43;25.30;98.80
7686;DHT22;3885;51.474;-2.576;2023-06-14T12:07:11;25.20;98.80
7686;DHT22;3885;51.474;-2.576;2023-06-14T12:09:41;25.40;99.30
7686;DHT22;3885;51.474;-2.576;2023-06-14T12:12:09;25.60;99.40
7686;DHT22;3885;51.474;-2.576;2023-06-14T12:14:36;25.70;98.80
7686;DHT22;3885;51.474;-2.576;2023-06-14T12:19:32;26.10;98.50
7686;DHT22;3885;51.474;-2.576;2023-06-14T12:22:03;26.00;98.30
7686;DHT22;3885;51.474;-2.576;2023-06-14T12:24:30;26.00;98.50
7686;DHT22;3885;51.474;-2.576;2023-06-14T12:26:59;26.20;98.20
7686;DHT22;3885;51.474;-2.576;2023-06-14T12:39:20;26.50;96.60
7686;DHT22;3885;51.474;-2.576;2023-06-14T12:44:15;26.50;97.20
7686;DHT22;3885;51.474;-2.576;2023-06-14T12:46:43;26.50;96.60
7686;DHT22;3885;51.474;-2.576;2023-06-14T12:49:10;26.50;96.50
7686;DHT22;3885;51.474;-2.576;2023-06-14T12:54:05;26.60;96.80
7686;DHT22;3885;51.474;-2.576;2023-06-14T12:56:33;26.60;96.30
7686;DHT22;3885;51.474;-2.576;2023-06-14T13:03:54;26.70;96.20
7686;DHT22;3885;51.474;-2.576;2023-06-14T13:06:22;26.80;95.60
7686;DHT22;3885;51.474;-2.576;2023-06-14T13:11:17;26.80;95.80
7686;DHT22;3885;51.474;-2.576;2023-06-14T13:13:45;26.90;95.90
7686;DHT22;3885;51.474;-2.576;2023-06-14T13:16:12;27.00;96.40
7686;DHT22;3885;51.474;-2.576;2023-06-14T13:18:40;27.00;95.60
7686;DHT22;3885;51.474;-2.576;2023-06-14T13:26:01;27.10;95.90
7686;DHT22;3885;51.474;-2.576;2023-06-14T13:28:28;27.10;94.70
7686;DHT22;3885;51.474;-2.576;2023-06-14T13:30:58;27.10;95.20
7686;DHT22;3885;51.474;-2.576;2023-06-14T13:33:25;27.30;95.50
7686;DHT22;3885;51.474;-2.576;2023-06-14T13:35:52;27.40;95.50
7686;DHT22;3885;51.474;-2.576;2023-06-14T13:38:19;27.40;95.50
7686;DHT22;3885;51.474;-2.576;2023-06-14T13:45:40;27.70;94.80
7686;DHT22;3885;51.474;-2.576;2023-06-14T13:50:36;27.90;94.30
7686;DHT22;3885;51.474;-2.576;2023-06-14T13:53:03;27.90;94.50
7686;DHT22;3885;51.474;-2.576;2023-06-14T13:55:30;28.10;95.20
7686;DHT22;3885;51.474;-2.576;2023-06-14T14:02:51;28.30;94.00
7686;DHT22;3885;51.474;-2.576;2023-06-14T14:05:21;28.20;94.00
7686;DHT22;3885;51.474;-2.576;2023-06-14T14:10:19;28.20;94.20
7686;DHT22;3885;51.474;-2.576;2023-06-14T14:12:45;28.10;93.70
7686;DHT22;3885;51.474;-2.576;2023-06-14T14:15:13;28.10;95.10
7686;DHT22;3885;51.474;-2.576;2023-06-14T14:20:09;28.00;94.10
7686;DHT22;3885;51.474;-2.576;2023-06-14T14:22:39;28.00;94.10
7686;DHT22;3885;51.474;-2.576;2023-06-14T14:25:07;28.10;94.50
7686;DHT22;3885;51.474;-2.576;2023-06-14T14:27:34;28.20;93.90
7686;DHT22;3885;51.474;-2.576;2023-06-14T14:30:01;28.30;94.40
7686;DHT22;3885;51.474;-2.576;2023-06-14T14:32:28;28.40;94.20
7686;DHT22;3885;51.474;-2.576;2023-06-14T14:34:55;28.20;93.60
7686;DHT22;3885;51.474;-2.576;2023-06-14T14:37:22;28.30;95.00
7686;DHT22;3885;51.474;-2.576;2023-06-14T14:39:50;28.50;94.70
7686;DHT22;3885;51.474;-2.576;2023-06-14T14:42:17;28.50;94.40
7686;DHT22;3885;51.474;-2.576;2023-06-14T14:44:45;28.60;94.50
7686;DHT22;3885;51.474;-2.576;2023-06-14T14:47:12;28.60;93.50
7686;DHT22;3885;51.474;-2.576;2023-06-14T14:49:39;28.60;93.90
7686;DHT22;3885;51.474;-2.576;2023-06-14T14:52:07;28.70;93.50
7686;DHT22;3885;51.474;-2.576;2023-06-14T14:54:34;28.70;93.40
7686;DHT22;3885;51.474;-2.576;2023-06-14T14:57:03;28.80;94.40
7686;DHT22;3885;51.474;-2.576;2023-06-14T15:01:57;29.00;94.30
7686;DHT22;3885;51.474;-2.576;2023-06-14T15:04:24;29.00;94.30
7686;DHT22;3885;51.474;-2.576;2023-06-14T15:09:18;29.10;94.20
7686;DHT22;3885;51.474;-2.576;2023-06-14T15:11:45;29.10;94.20
7686;DHT22;3885;51.474;-2.576;2023-06-14T15:16:41;29.00;94.40
7686;DHT22;3885;51.474;-2.576;2023-06-14T15:19:08;28.90;94.50
7686;DHT22;3885;51.474;-2.576;2023-06-14T15:21:35;29.00;94.30
7686;DHT22;3885;51.474;-2.576;2023-06-14T15:24:02;28.90;93.50
7686;DHT22;3885;51.474;-2.576;2023-06-14T15:28:56;28.80;94.20
7686;DHT22;3885;51.474;-2.576;2023-06-14T15:31:24;28.80;94.30
7686;DHT22;3885;51.474;-2.576;2023-06-14T15:33:53;28.90;94.10
7686;DHT22;3885;51.474;-2.576;2023-06-14T15:36:20;29.10;95.30
7686;DHT22;3885;51.474;-2.576;2023-06-14T15:41:14;29.30;94.50
7686;DHT22;3885;51.474;-2.576;2023-06-14T15:43:41;29.30;93.90
7686;DHT22;3885;51.474;-2.576;2023-06-14T15:51:04;29.50;92.70
7686;DHT22;3885;51.474;-2.576;2023-06-14T15:53:30;29.30;93.20
7686;DHT22;3885;51.474;-2.576;2023-06-14T15:55:57;29.00;92.90
7686;DHT22;3885;51.474;-2.576;2023-06-14T15:58:24;28.90;93.50
7686;DHT22;3885;51.474;-2.576;2023-06-14T16:00:51;28.60;93.00
7686;DHT22;3885;51.474;-2.576;2023-06-14T16:03:18;28.40;93.30
7686;DHT22;3885;51.474;-2.576;2023-06-14T16:05:46;28.30;93.90
7686;DHT22;3885;51.474;-2.576;2023-06-14T16:08:13;28.30;94.30
7686;DHT22;3885;51.474;-2.576;2023-06-14T16:10:41;28.30;94.00
7686;DHT22;3885;51.474;-2.576;2023-06-14T16:13:08;28.40;94.40
7686;DHT22;3885;51.474;-2.576;2023-06-14T16:20:29;28.60;92.90
7686;DHT22;3885;51.474;-2.576;2023-06-14T16:22:57;28.90;93.20
7686;DHT22;3885;51.474;-2.576;2023-06-14T16:25:24;29.00;93.60
7686;DHT22;3885;51.474;-2.576;2023-06-14T16:27:52;29.10;93.10
7686;DHT22;3885;51.474;-2.576;2023-06-14T16:32:46;29.20;93.30
7686;DHT22;3885;51.474;-2.576;2023-06-14T16:35:13;29.20;93.90
7686;DHT22;3885;51.474;-2.576;2023-06-14T16:37:40;29.20;93.40
7686;DHT22;3885;51.474;-2.576;2023-06-14T16:42:36;28.90;93.80
7686;DHT22;3885;51.474;-2.576;2023-06-14T16:45:04;28.70;93.50
7686;DHT22;3885;51.474;-2.576;2023-06-14T16:49:58;28.60;93.90
7686;DHT22;3885;51.474;-2.576;2023-06-14T16:52:25;28.60;94.10
7686;DHT22;3885;51.474;-2.576;2023-06-14T16:54:52;28.60;94.10
7686;DHT22;3885;51.474;-2.576;2023-06-14T16:57:21;28.60;94.50
7686;DHT22;3885;51.474;-2.576;2023-06-14T16:59:47;28.60;94.30
7686;DHT22;3885;51.474;-2.576;2023-06-14T17:04:42;28.70;94.10
7686;DHT22;3885;51.474;-2.576;2023-06-14T17:09:36;28.80;94.70
7686;DHT22;3885;51.474;-2.576;2023-06-14T17:12:04;28.90;94.40
7686;DHT22;3885;51.474;-2.576;2023-06-14T17:24:21;28.50;94.90
7686;DHT22;3885;51.474;-2.576;2023-06-14T17:26:48;28.30;94.80
7686;DHT22;3885;51.474;-2.576;2023-06-14T17:29:15;28.30;95.50
7686;DHT22;3885;51.474;-2.576;2023-06-14T17:31:44;28.30;94.80
7686;DHT22;3885;51.474;-2.576;2023-06-14T17:36:38;28.00;95.30
7686;DHT22;3885;51.474;-2.576;2023-06-14T17:39:05;27.90;95.10
7686;DHT22;3885;51.474;-2.576;2023-06-14T17:56:19;27.50;95.70
7686;DHT22;3885;51.474;-2.576;2023-06-14T18:08:38;27.30;97.50
7686;DHT22;3885;51.474;-2.576;2023-06-14T18:13:35;27.40;97.00
7686;DHT22;3885;51.474;-2.576;2023-06-14T18:20:57;27.10;99.30
7686;DHT22;3885;51.474;-2.576;2023-06-14T18:23:26;27.00;99.90
7686;DHT22;3885;51.474;-2.576;2023-06-14T18:25:53;26.90;99.80
7686;DHT22;3885;51.474;-2.576;2023-06-14T18:28:20;26.80;97.60
7686;DHT22;3885;51.474;-2.576;2023-06-14T18:33:14;26.60;98.30
7686;DHT22;3885;51.474;-2.576;2023-06-14T18:38:09;26.60;99.90
7686;DHT22;3885;51.474;-2.576;2023-06-14T18:43:05;26.60;98.30
7686;DHT22;3885;51.474;-2.576;2023-06-14T18:45:33;26.60;99.20
7686;DHT22;3885;51.474;-2.576;2023-06-14T18:48:00;26.60;99.50
7686;DHT22;3885;51.474;-2.576;2023-06-14T18:55:22;26.70;97.80
7686;DHT22;3885;51.474;-2.576;2023-06-14T18:57:50;26.80;97.80
7686;DHT22;3885;51.474;-2.576;2023-06-14T19:05:12;26.60;97.20
7686;DHT22;3885;51.474;-2.576;2023-06-14T19:07:39;26.50;96.80
7686;DHT22;3885;51.474;-2.576;2023-06-14T19:12:34;26.40;97.70
7686;DHT22;3885;51.474;-2.576;2023-06-14T19:15:03;26.40;99.70
7686;DHT22;3885;51.474;-2.576;2023-06-14T19:17:30;26.30;99.00
7686;DHT22;3885;51.474;-2.576;2023-06-14T19:19:57;26.20;99.90
7686;DHT22;3885;51.474;-2.576;2023-06-14T19:22:24;26.10;99.40
7686;DHT22;3885;51.474;-2.576;2023-06-14T19:24:51;25.90;97.80
7686;DHT22;3885;51.474;-2.576;2023-06-14T19:27:18;25.80;99.30
7686;DHT22;3885;51.474;-2.576;2023-06-14T19:32:14;25.70;99.90
7686;DHT22;3885;51.474;-2.576;2023-06-14T19:34:41;25.60;99.90
7686;DHT22;3885;51.474;-2.576;2023-06-14T19:37:08;25.60;99.90
7686;DHT22;3885;51.474;-2.576;2023-06-14T19:39:35;25.50;99.90
7686;DHT22;3885;51.474;-2.576;2023-06-14T19:42:03;25.50;99.90
7686;DHT22;3885;51.474;-2.576;2023-06-14T19:44:30;25.40;99.90
7686;DHT22;3885;51.474;-2.576;2023-06-14T19:46:57;25.30;99.90
7686;DHT22;3885;51.474;-2.576;2023-06-14T19:49:25;25.20;98.80
7686;DHT22;3885;51.474;-2.576;2023-06-14T19:51:52;25.20;99.90
7686;DHT22;3885;51.474;-2.576;2023-06-14T20:01:41;25.10;99.90
7686;DHT22;3885;51.474;-2.576;2023-06-14T20:04:08;25.00;99.90
7686;DHT22;3885;51.474;-2.576;2023-06-14T20:06:36;25.00;99.90
7686;DHT22;3885;51.474;-2.576;2023-06-14T20:09:03;24.90;99.90
7686;DHT22;3885;51.474;-2.576;2023-06-14T20:11:37;24.80;99.90
7686;DHT22;3885;51.474;-2.576;2023-06-14T20:14:04;24.70;99.90
7686;DHT22;3885;51.474;-2.576;2023-06-14T20:16:31;24.60;99.90
7686;DHT22;3885;51.474;-2.576;2023-06-14T20:18:59;24.60;99.90
7686;DHT22;3885;51.474;-2.576;2023-06-14T20:21:26;24.50;99.90
7686;DHT22;3885;51.474;-2.576;2023-06-14T20:23:55;24.40;99.90
7686;DHT22;3885;51.474;-2.576;2023-06-14T20:26:22;24.30;99.40
7686;DHT22;3885;51.474;-2.576;2023-06-14T20:28:49;24.40;99.90
7686;DHT22;3885;51.474;-2.576;2023-06-14T20:31:16;24.40;99.90
7686;DHT22;3885;51.474;-2.576;2023-06-14T20:33:44;24.40;99.90
7686;DHT22;3885;51.474;-2.576;2023-06-14T20:36:12;24.30;99.90
7686;DHT22;3885;51.474;-2.576;2023-06-14T20:38:39;24.30;99.90
7686;DHT22;3885;51.474;-2.576;2023-06-14T20:41:07;24.30;99.90
7686;DHT22;3885;51.474;-2.576;2023-06-14T20:43:34;24.30;99.90
7686;DHT22;3885;51.474;-2.576;2023-06-14T20:46:02;24.20;99.90
7686;DHT22;3885;51.474;-2.576;2023-06-14T20:48:32;24.10;99.90
7686;DHT22;3885;51.474;-2.576;2023-06-14T20:53:27;24.00;99.90
7686;DHT22;3885;51.474;-2.576;2023-06-14T20:55:54;24.00;99.90
7686;DHT22;3885;51.474;-2.576;2023-06-14T21:00:50;23.60;99.90
7686;DHT22;3885;51.474;-2.576;2023-06-14T21:03:17;23.40;99.90
7686;DHT22;3885;51.474;-2.576;2023-06-14T21:05:44;23.20;99.90
7686;DHT22;3885;51.474;-2.576;2023-06-14T21:08:11;23.10;99.90
7686;DHT22;3885;51.474;-2.576;2023-06-14T21:10:38;23.00;99.90
7686;DHT22;3885;51.474;-2.576;2023-06-14T21:15:34;22.70;99.90
7686;DHT22;3885;51.474;-2.576;2023-06-14T21:20:28;22.40;99.90
7686;DHT22;3885;51.474;-2.576;2023-06-14T21:22:55;22.20;99.90
7686;DHT22;3885;51.474;-2.576;2023-06-14T21:25:22;22.00;99.90
7686;DHT22;3885;51.474;-2.576;2023-06-14T21:30:16;22.00;99.90
7686;DHT22;3885;51.474;-2.576;2023-06-14T21:32:44;22.00;99.90
7686;DHT22;3885;51.474;-2.576;2023-06-14T21:37:42;21.90;99.90
7686;DHT22;3885;51.474;-2.576;2023-06-14T21:40:10;21.90;99.90
7686;DHT22;3885;51.474;-2.576;2023-06-14T21:45:05;21.80;99.90
7686;DHT22;3885;51.474;-2.576;2023-06-14T21:47:34;21.80;99.90
7686;DHT22;3885;51.474;-2.576;2023-06-14T21:50:03;21.70;99.90
7686;DHT22;3885;51.474;-2.576;2023-06-14T21:52:30;21.50;99.90
7686;DHT22;3885;51.474;-2.576;2023-06-14T21:57:25;21.20;99.90
7686;DHT22;3885;51.474;-2.576;2023-06-14T21:59:53;21.10;99.90
7686;DHT22;3885;51.474;-2.576;2023-06-14T22:02:19;21.10;99.90
7686;DHT22;3885;51.474;-2.576;2023-06-14T22:04:46;21.00;99.90